Terminal Aerodrome Forecast
Issued by NWS Lake Charles, LA

Home | Current Version | Previous Version | Text Only | Print | Product List | Glossary On
Versions: 1 2 3 4 5 6 7 8 9 10 11 12 13 14 15 16 17 18 19
000
FTUS44 KLCH 301100 RRA
TAFBPT
TAF
KBPT 301143Z 3012/3112 19008KT P6SM -RA SCT010 BKN022 OVC070
      TEMPO 3012/3016 2SM +TSRA SCT025CB BKN035
     FM301800 17008KT P6SM VCTS BKN025CB
      TEMPO 3018/3021 4SM -TSRA
     FM302100 18009KT P6SM OVC025
      TEMPO 3021/3024 P6SM -TSRA BKN025CB
     FM310000 16007KT P6SM SCT050 BKN250=

USA.gov is the U.S. government's official web portal to all federal, state and local government web resources and services.